Corpus Christi Naval Air Station/Truax Field
KNGP : rendu visible

Aérodrome :











RETROUVEZ-NOUS SUR...

 
LOGIN :

S'inscrire | Disclaimer

   EN    FR    IT 

 









Légende :    VFR   VFR Marginal   IFR   IFR Intensif   IFR Très Intensif
Visi : 
Plafond : 
>= 8 km
>= 3000ft
5 à 8 km
1000 à 3000 ft
1500m à 5 km
500 à 1000 ft
800 à 1500m
200 à 500 ft
< 800m
< 200 ft
Symboles :   Orages  Brouillard  Fortes neiges  Fortes précipitations  Vent > 20 kt






- Altitude de l'aérodrome : 18 ft


KNGP - Corpus Christi Naval Air Station/Truax Field

DERNIER METAR :
  • 210156Z AUTO 11008KT 10SM CLR 12/04 A3047 RMK AO2 SLP318 T01220039

METARs EXPIRÉS :
  • 210056Z AUTO 11008KT 10SM CLR 12/03 A3047 RMK AO2 SLP317 T01170033
  • 202356Z AUTO 09008KT 10SM CLR 13/02 A3046 RMK AO2 SLP315 T01280022 10161 20128 56010

TAF TAF KNGP
Valide du 20 à 23h jusqu'au 21 à 23h UTC


2023/2123 VRB06KT 9999 FEW080 QNH3042INS
BECMG 2104/2106 VRB06KT 9999 FEW080 BKN100 QNH3040INS AUTOMATED SENSOR METWATCH 2023 TIL 2110 T11/2112Z T18/2121Z FN00189



MET'MAP, la Météo Aéronautique d'un coup d'oeil ! - Copyright ORBIFLY Décembre 2007 - Disclaimer

ORBIFLY MET'MAP TEAM :

Programmation & Développement : Alexandra Zaïnal
Sur une idée originale de : Baudouin d'Aumeries
Assistance à la programmation : Marc-Olivier Méhu
Soutien technique & logistique : Manuel Goepfert

Contact : metmap@orbifly.com




SOURCES & CREDITS :

   NOAA       Earth
Advisory